sensor_id;sensor_type;location;lat;lon;timestamp;P1;durP1;ratioP1;P2;durP2;ratioP2
67162;SDS011;54092;53.088;8.850;2023-04-01T00:01:10;14.18;;;7.13;;
67162;SDS011;54092;53.088;8.850;2023-04-01T00:03:38;17.25;;;7.35;;
67162;SDS011;54092;53.088;8.850;2023-04-01T00:06:04;14.18;;;7.18;;
67162;SDS011;54092;53.088;8.850;2023-04-01T00:08:30;16.95;;;7.78;;
67162;SDS011;54092;53.088;8.850;2023-04-01T00:10:56;18.48;;;7.70;;
67162;SDS011;54092;53.088;8.850;2023-04-01T00:13:22;15.57;;;7.15;;
67162;SDS011;54092;53.088;8.850;2023-04-01T00:15:50;19.50;;;7.40;;
67162;SDS011;54092;53.088;8.850;2023-04-01T00:18:16;18.15;;;8.35;;
67162;SDS011;54092;53.088;8.850;2023-04-01T00:20:45;15.73;;;7.50;;
67162;SDS011;54092;53.088;8.850;2023-04-01T00:23:12;18.90;;;8.02;;
67162;SDS011;54092;53.088;8.850;2023-04-01T00:25:38;17.45;;;7.68;;
67162;SDS011;54092;53.088;8.850;2023-04-01T00:28:04;16.63;;;8.20;;
67162;SDS011;54092;53.088;8.850;2023-04-01T00:30:30;15.20;;;7.70;;
67162;SDS011;54092;53.088;8.850;2023-04-01T00:32:55;17.15;;;7.35;;
67162;SDS011;54092;53.088;8.850;2023-04-01T00:35:21;19.23;;;7.75;;
67162;SDS011;54092;53.088;8.850;2023-04-01T00:37:47;17.50;;;7.80;;
67162;SDS011;54092;53.088;8.850;2023-04-01T00:40:35;14.13;;;6.78;;
67162;SDS011;54092;53.088;8.850;2023-04-01T00:43:00;16.63;;;7.03;;
67162;SDS011;54092;53.088;8.850;2023-04-01T00:45:27;17.10;;;8.05;;
67162;SDS011;54092;53.088;8.850;2023-04-01T00:47:53;13.95;;;7.15;;
67162;SDS011;54092;53.088;8.850;2023-04-01T00:50:20;16.45;;;7.88;;
67162;SDS011;54092;53.088;8.850;2023-04-01T00:52:47;16.10;;;6.95;;
67162;SDS011;54092;53.088;8.850;2023-04-01T00:55:13;16.58;;;7.68;;
67162;SDS011;54092;53.088;8.850;2023-04-01T00:57:41;15.70;;;7.63;;
67162;SDS011;54092;53.088;8.850;2023-04-01T01:00:09;14.60;;;7.57;;
67162;SDS011;54092;53.088;8.850;2023-04-01T01:02:37;17.95;;;6.95;;
67162;SDS011;54092;53.088;8.850;2023-04-01T01:05:03;14.93;;;7.40;;
67162;SDS011;54092;53.088;8.850;2023-04-01T01:07:38;15.70;;;7.22;;
67162;SDS011;54092;53.088;8.850;2023-04-01T01:10:31;17.65;;;7.85;;
67162;SDS011;54092;53.088;8.850;2023-04-01T01:13:04;18.85;;;8.18;;
67162;SDS011;54092;53.088;8.850;2023-04-01T01:15:41;16.60;;;6.55;;
67162;SDS011;54092;53.088;8.850;2023-04-01T01:18:15;16.67;;;7.82;;
67162;SDS011;54092;53.088;8.850;2023-04-01T01:21:05;18.13;;;7.60;;
67162;SDS011;54092;53.088;8.850;2023-04-01T01:26:38;16.20;;;7.43;;
67162;SDS011;54092;53.088;8.850;2023-04-01T01:35:33;18.85;;;7.35;;
67162;SDS011;54092;53.088;8.850;2023-04-01T01:38:10;16.80;;;6.57;;
67162;SDS011;54092;53.088;8.850;2023-04-01T01:40:39;16.90;;;7.35;;
67162;SDS011;54092;53.088;8.850;2023-04-01T01:43:09;13.65;;;6.93;;
67162;SDS011;54092;53.088;8.850;2023-04-01T01:45:38;16.33;;;7.67;;
67162;SDS011;54092;53.088;8.850;2023-04-01T01:48:08;16.58;;;7.45;;
67162;SDS011;54092;53.088;8.850;2023-04-01T01:50:35;14.52;;;6.57;;
67162;SDS011;54092;53.088;8.850;2023-04-01T01:53:05;12.73;;;6.65;;
67162;SDS011;54092;53.088;8.850;2023-04-01T01:55:34;13.07;;;6.38;;
67162;SDS011;54092;53.088;8.850;2023-04-01T02:00:35;16.48;;;7.45;;
67162;SDS011;54092;53.088;8.850;2023-04-01T02:03:02;16.52;;;7.28;;
67162;SDS011;54092;53.088;8.850;2023-04-01T02:05:29;14.27;;;7.13;;
67162;SDS011;54092;53.088;8.850;2023-04-01T02:08:18;13.27;;;7.50;;
67162;SDS011;54092;53.088;8.850;2023-04-01T02:10:45;14.45;;;7.22;;
67162;SDS011;54092;53.088;8.850;2023-04-01T02:13:29;14.68;;;7.18;;
67162;SDS011;54092;53.088;8.850;2023-04-01T02:16:02;18.13;;;7.93;;
67162;SDS011;54092;53.088;8.850;2023-04-01T02:18:32;13.30;;;7.25;;
67162;SDS011;54092;53.088;8.850;2023-04-01T02:21:01;14.48;;;7.40;;
67162;SDS011;54092;53.088;8.850;2023-04-01T02:23:29;13.52;;;7.35;;
67162;SDS011;54092;53.088;8.850;2023-04-01T02:25:58;19.40;;;8.23;;
67162;SDS011;54092;53.088;8.850;2023-04-01T02:28:25;16.33;;;7.78;;
67162;SDS011;54092;53.088;8.850;2023-04-01T02:30:51;15.73;;;7.25;;
67162;SDS011;54092;53.088;8.850;2023-04-01T02:33:18;20.13;;;8.52;;
67162;SDS011;54092;53.088;8.850;2023-04-01T02:35:45;18.00;;;8.00;;
67162;SDS011;54092;53.088;8.850;2023-04-01T02:38:10;18.42;;;8.35;;
67162;SDS011;54092;53.088;8.850;2023-04-01T02:40:46;16.05;;;7.78;;
67162;SDS011;54092;53.088;8.850;2023-04-01T02:43:14;16.95;;;7.65;;
67162;SDS011;54092;53.088;8.850;2023-04-01T02:45:41;14.13;;;7.88;;
67162;SDS011;54092;53.088;8.850;2023-04-01T02:48:06;17.20;;;8.15;;
67162;SDS011;54092;53.088;8.850;2023-04-01T02:50:32;17.88;;;7.85;;
67162;SDS011;54092;53.088;8.850;2023-04-01T02:52:58;16.90;;;8.13;;
67162;SDS011;54092;53.088;8.850;2023-04-01T02:55:23;15.80;;;7.57;;
67162;SDS011;54092;53.088;8.850;2023-04-01T02:57:49;15.60;;;7.30;;
67162;SDS011;54092;53.088;8.850;2023-04-01T03:00:14;16.50;;;8.10;;
67162;SDS011;54092;53.088;8.850;2023-04-01T03:02:41;14.40;;;7.78;;
67162;SDS011;54092;53.088;8.850;2023-04-01T03:05:06;15.20;;;7.97;;
67162;SDS011;54092;53.088;8.850;2023-04-01T03:07:32;17.83;;;7.78;;
67162;SDS011;54092;53.088;8.850;2023-04-01T03:09:58;13.45;;;7.20;;
67162;SDS011;54092;53.088;8.850;2023-04-01T03:12:23;14.05;;;6.85;;
67162;SDS011;54092;53.088;8.850;2023-04-01T03:14:49;15.05;;;7.18;;
67162;SDS011;54092;53.088;8.850;2023-04-01T03:17:14;15.35;;;7.00;;
67162;SDS011;54092;53.088;8.850;2023-04-01T03:19:40;14.65;;;7.05;;
67162;SDS011;54092;53.088;8.850;2023-04-01T03:22:05;17.02;;;7.63;;
67162;SDS011;54092;53.088;8.850;2023-04-01T03:24:31;15.15;;;6.90;;
67162;SDS011;54092;53.088;8.850;2023-04-01T03:26:56;13.50;;;6.25;;
67162;SDS011;54092;53.088;8.850;2023-04-01T03:29:22;15.57;;;7.53;;
67162;SDS011;54092;53.088;8.850;2023-04-01T03:31:47;16.95;;;7.65;;
67162;SDS011;54092;53.088;8.850;2023-04-01T03:34:13;15.43;;;6.57;;
67162;SDS011;54092;53.088;8.850;2023-04-01T03:36:39;15.88;;;7.13;;
67162;SDS011;54092;53.088;8.850;2023-04-01T03:39:04;13.50;;;6.55;;
67162;SDS011;54092;53.088;8.850;2023-04-01T03:41:30;13.15;;;6.07;;
67162;SDS011;54092;53.088;8.850;2023-04-01T03:43:57;12.98;;;6.45;;
67162;SDS011;54092;53.088;8.850;2023-04-01T03:46:22;13.35;;;6.20;;
67162;SDS011;54092;53.088;8.850;2023-04-01T03:48:48;16.38;;;5.82;;
67162;SDS011;54092;53.088;8.850;2023-04-01T03:51:13;14.32;;;6.97;;
67162;SDS011;54092;53.088;8.850;2023-04-01T03:53:39;13.55;;;6.25;;
67162;SDS011;54092;53.088;8.850;2023-04-01T03:56:05;13.10;;;5.82;;
67162;SDS011;54092;53.088;8.850;2023-04-01T03:58:31;16.02;;;6.35;;
67162;SDS011;54092;53.088;8.850;2023-04-01T04:00:57;12.48;;;5.65;;
67162;SDS011;54092;53.088;8.850;2023-04-01T04:03:23;14.27;;;6.13;;
67162;SDS011;54092;53.088;8.850;2023-04-01T04:05:48;12.13;;;5.82;;
67162;SDS011;54092;53.088;8.850;2023-04-01T04:08:14;11.90;;;6.32;;
67162;SDS011;54092;53.088;8.850;2023-04-01T04:10:40;13.32;;;6.50;;
67162;SDS011;54092;53.088;8.850;2023-04-01T04:13:06;14.75;;;6.03;;
67162;SDS011;54092;53.088;8.850;2023-04-01T04:15:31;15.95;;;6.30;;
67162;SDS011;54092;53.088;8.850;2023-04-01T04:17:57;14.05;;;6.20;;
67162;SDS011;54092;53.088;8.850;2023-04-01T04:20:22;12.63;;;6.15;;
67162;SDS011;54092;53.088;8.850;2023-04-01T04:22:48;14.00;;;5.72;;
67162;SDS011;54092;53.088;8.850;2023-04-01T04:25:13;11.88;;;5.63;;
67162;SDS011;54092;53.088;8.850;2023-04-01T04:27:39;12.60;;;5.68;;
67162;SDS011;54092;53.088;8.850;2023-04-01T04:30:05;10.80;;;5.57;;
67162;SDS011;54092;53.088;8.850;2023-04-01T04:32:31;11.25;;;5.82;;
67162;SDS011;54092;53.088;8.850;2023-04-01T04:34:57;11.80;;;6.10;;
67162;SDS011;54092;53.088;8.850;2023-04-01T04:37:22;15.13;;;5.55;;
67162;SDS011;54092;53.088;8.850;2023-04-01T04:39:48;16.17;;;6.35;;
67162;SDS011;54092;53.088;8.850;2023-04-01T04:42:13;13.63;;;5.90;;
67162;SDS011;54092;53.088;8.850;2023-04-01T04:44:39;13.20;;;5.18;;
67162;SDS011;54092;53.088;8.850;2023-04-01T04:47:04;13.77;;;5.68;;
67162;SDS011;54092;53.088;8.850;2023-04-01T04:49:30;12.25;;;5.53;;
67162;SDS011;54092;53.088;8.850;2023-04-01T04:51:56;12.23;;;5.25;;
67162;SDS011;54092;53.088;8.850;2023-04-01T04:54:21;10.77;;;5.57;;
67162;SDS011;54092;53.088;8.850;2023-04-01T04:56:47;15.07;;;6.10;;
67162;SDS011;54092;53.088;8.850;2023-04-01T04:59:12;11.70;;;6.20;;
67162;SDS011;54092;53.088;8.850;2023-04-01T05:01:38;12.57;;;6.40;;
67162;SDS011;54092;53.088;8.850;2023-04-01T05:04:03;11.32;;;5.65;;
67162;SDS011;54092;53.088;8.850;2023-04-01T05:06:29;10.52;;;5.63;;
67162;SDS011;54092;53.088;8.850;2023-04-01T05:08:54;12.73;;;5.57;;
67162;SDS011;54092;53.088;8.850;2023-04-01T05:11:21;12.18;;;5.45;;
67162;SDS011;54092;53.088;8.850;2023-04-01T05:13:47;12.32;;;5.65;;
67162;SDS011;54092;53.088;8.850;2023-04-01T05:16:14;12.07;;;5.53;;
67162;SDS011;54092;53.088;8.850;2023-04-01T05:18:42;11.32;;;5.90;;
67162;SDS011;54092;53.088;8.850;2023-04-01T05:21:08;12.13;;;5.75;;
67162;SDS011;54092;53.088;8.850;2023-04-01T05:23:36;13.98;;;5.90;;
67162;SDS011;54092;53.088;8.850;2023-04-01T05:26:05;14.45;;;5.80;;
67162;SDS011;54092;53.088;8.850;2023-04-01T05:28:32;10.80;;;5.97;;
67162;SDS011;54092;53.088;8.850;2023-04-01T05:31:01;12.90;;;5.95;;
67162;SDS011;54092;53.088;8.850;2023-04-01T05:33:27;11.85;;;5.45;;
67162;SDS011;54092;53.088;8.850;2023-04-01T05:35:54;11.48;;;5.47;;
67162;SDS011;54092;53.088;8.850;2023-04-01T05:38:20;11.52;;;5.35;;
67162;SDS011;54092;53.088;8.850;2023-04-01T05:40:46;11.40;;;5.28;;
67162;SDS011;54092;53.088;8.850;2023-04-01T05:43:11;11.60;;;5.43;;
67162;SDS011;54092;53.088;8.850;2023-04-01T05:45:37;12.60;;;5.72;;
67162;SDS011;54092;53.088;8.850;2023-04-01T05:48:02;10.43;;;5.20;;
67162;SDS011;54092;53.088;8.850;2023-04-01T05:50:28;10.68;;;5.22;;
67162;SDS011;54092;53.088;8.850;2023-04-01T05:52:54;11.63;;;5.35;;
67162;SDS011;54092;53.088;8.850;2023-04-01T05:55:19;12.75;;;5.03;;
67162;SDS011;54092;53.088;8.850;2023-04-01T05:57:45;10.13;;;4.80;;
67162;SDS011;54092;53.088;8.850;2023-04-01T06:00:13;9.93;;;4.90;;
67162;SDS011;54092;53.088;8.850;2023-04-01T06:02:39;9.13;;;4.72;;
67162;SDS011;54092;53.088;8.850;2023-04-01T06:05:22;8.65;;;4.22;;
67162;SDS011;54092;53.088;8.850;2023-04-01T06:07:55;13.05;;;5.07;;
67162;SDS011;54092;53.088;8.850;2023-04-01T06:10:25;10.52;;;4.55;;
67162;SDS011;54092;53.088;8.850;2023-04-01T06:24:23;8.70;;;4.03;;
67162;SDS011;54092;53.088;8.850;2023-04-01T06:30:43;9.02;;;4.05;;
67162;SDS011;54092;53.088;8.850;2023-04-01T06:35:36;10.70;;;4.40;;
67162;SDS011;54092;53.088;8.850;2023-04-01T06:41:20;7.93;;;3.78;;
67162;SDS011;54092;53.088;8.850;2023-04-01T06:46:53;8.32;;;4.03;;
67162;SDS011;54092;53.088;8.850;2023-04-01T06:49:33;7.82;;;4.00;;
67162;SDS011;54092;53.088;8.850;2023-04-01T06:57:58;6.90;;;3.85;;
67162;SDS011;54092;53.088;8.850;2023-04-01T07:00:27;8.50;;;4.07;;
67162;SDS011;54092;53.088;8.850;2023-04-01T07:05:34;8.52;;;3.83;;
67162;SDS011;54092;53.088;8.850;2023-04-01T07:08:04;7.70;;;3.75;;
67162;SDS011;54092;53.088;8.850;2023-04-01T07:10:38;7.38;;;3.60;;
67162;SDS011;54092;53.088;8.850;2023-04-01T07:13:58;8.02;;;3.90;;
67162;SDS011;54092;53.088;8.850;2023-04-01T07:16:11;6.78;;;4.00;;
67162;SDS011;54092;53.088;8.850;2023-04-01T07:21:24;7.20;;;3.88;;
67162;SDS011;54092;53.088;8.850;2023-04-01T07:23:56;8.02;;;3.83;;
67162;SDS011;54092;53.088;8.850;2023-04-01T07:26:26;6.88;;;3.75;;
67162;SDS011;54092;53.088;8.850;2023-04-01T07:28:52;8.00;;;3.85;;
67162;SDS011;54092;53.088;8.850;2023-04-01T07:33:58;7.80;;;3.80;;
67162;SDS011;54092;53.088;8.850;2023-04-01T07:36:51;10.02;;;4.03;;
67162;SDS011;54092;53.088;8.850;2023-04-01T07:42:32;7.88;;;3.67;;
67162;SDS011;54092;53.088;8.850;2023-04-01T07:47:57;5.82;;;3.20;;
67162;SDS011;54092;53.088;8.850;2023-04-01T07:50:34;9.13;;;3.13;;
67162;SDS011;54092;53.088;8.850;2023-04-01T07:54:07;5.85;;;3.00;;
67162;SDS011;54092;53.088;8.850;2023-04-01T07:56:07;5.88;;;2.97;;
67162;SDS011;54092;53.088;8.850;2023-04-01T08:03:54;6.07;;;3.47;;
67162;SDS011;54092;53.088;8.850;2023-04-01T08:06:50;12.45;;;6.32;;
67162;SDS011;54092;53.088;8.850;2023-04-01T08:09:27;7.22;;;3.63;;
67162;SDS011;54092;53.088;8.850;2023-04-01T08:15:19;8.15;;;4.65;;
67162;SDS011;54092;53.088;8.850;2023-04-01T08:20:36;6.95;;;3.20;;
67162;SDS011;54092;53.088;8.850;2023-04-01T08:23:22;8.38;;;3.30;;
67162;SDS011;54092;53.088;8.850;2023-04-01T08:28:57;5.22;;;3.05;;
67162;SDS011;54092;53.088;8.850;2023-04-01T08:31:32;5.70;;;3.10;;
67162;SDS011;54092;53.088;8.850;2023-04-01T08:34:03;5.80;;;2.70;;
67162;SDS011;54092;53.088;8.850;2023-04-01T08:36:37;4.90;;;2.63;;
67162;SDS011;54092;53.088;8.850;2023-04-01T08:39:15;4.45;;;2.53;;
67162;SDS011;54092;53.088;8.850;2023-04-01T08:42:10;5.80;;;2.72;;
67162;SDS011;54092;53.088;8.850;2023-04-01T08:52:58;5.57;;;2.65;;
67162;SDS011;54092;53.088;8.850;2023-04-01T08:55:35;5.85;;;2.63;;
67162;SDS011;54092;53.088;8.850;2023-04-01T08:58:26;4.30;;;2.35;;
67162;SDS011;54092;53.088;8.850;2023-04-01T09:01:02;4.15;;;2.47;;
67162;SDS011;54092;53.088;8.850;2023-04-01T09:09:21;4.88;;;2.45;;
67162;SDS011;54092;53.088;8.850;2023-04-01T09:12:25;5.30;;;2.60;;
67162;SDS011;54092;53.088;8.850;2023-04-01T09:15:19;4.40;;;2.65;;
67162;SDS011;54092;53.088;8.850;2023-04-01T09:23:46;7.82;;;3.05;;
67162;SDS011;54092;53.088;8.850;2023-04-01T09:26:48;6.10;;;2.70;;
67162;SDS011;54092;53.088;8.850;2023-04-01T09:54:48;3.03;;;2.10;;
67162;SDS011;54092;53.088;8.850;2023-04-01T09:57:50;5.72;;;2.47;;
67162;SDS011;54092;53.088;8.850;2023-04-01T10:00:28;3.50;;;2.17;;
67162;SDS011;54092;53.088;8.850;2023-04-01T10:03:21;4.45;;;2.20;;
67162;SDS011;54092;53.088;8.850;2023-04-01T10:06:16;3.45;;;2.08;;
67162;SDS011;54092;53.088;8.850;2023-04-01T10:09:26;2.22;;;1.73;;
67162;SDS011;54092;53.088;8.850;2023-04-01T10:15:00;2.38;;;1.50;;
67162;SDS011;54092;53.088;8.850;2023-04-01T10:17:58;2.50;;;1.20;;
67162;SDS011;54092;53.088;8.850;2023-04-01T10:29:28;1.10;;;1.00;;
67162;SDS011;54092;53.088;8.850;2023-04-01T10:32:38;1.35;;;1.20;;
67162;SDS011;54092;53.088;8.850;2023-04-01T10:38:41;2.22;;;1.42;;
67162;SDS011;54092;53.088;8.850;2023-04-01T10:44:11;2.60;;;1.20;;
67162;SDS011;54092;53.088;8.850;2023-04-01T10:52:14;1.60;;;1.08;;
67162;SDS011;54092;53.088;8.850;2023-04-01T10:54:52;1.00;;;0.80;;
67162;SDS011;54092;53.088;8.850;2023-04-01T11:00:24;1.98;;;1.25;;
67162;SDS011;54092;53.088;8.850;2023-04-01T11:25:18;2.42;;;1.60;;
67162;SDS011;54092;53.088;8.850;2023-04-01T11:36:20;2.17;;;1.52;;
67162;SDS011;54092;53.088;8.850;2023-04-01T11:39:13;3.30;;;1.40;;
67162;SDS011;54092;53.088;8.850;2023-04-01T11:42:20;2.35;;;1.52;;
67162;SDS011;54092;53.088;8.850;2023-04-01T11:45:32;2.22;;;1.60;;
67162;SDS011;54092;53.088;8.850;2023-04-01T11:51:08;2.40;;;1.58;;
67162;SDS011;54092;53.088;8.850;2023-04-01T11:56:11;2.78;;;1.58;;
67162;SDS011;54092;53.088;8.850;2023-04-01T12:02:23;2.60;;;1.60;;
67162;SDS011;54092;53.088;8.850;2023-04-01T12:10:39;2.78;;;1.70;;
67162;SDS011;54092;53.088;8.850;2023-04-01T12:13:31;2.60;;;1.60;;
67162;SDS011;54092;53.088;8.850;2023-04-01T12:16:15;2.13;;;1.33;;
67162;SDS011;54092;53.088;8.850;2023-04-01T12:21:36;4.05;;;2.00;;
67162;SDS011;54092;53.088;8.850;2023-04-01T12:27:04;5.85;;;3.08;;
67162;SDS011;54092;53.088;8.850;2023-04-01T12:29:41;3.42;;;1.88;;
67162;SDS011;54092;53.088;8.850;2023-04-01T12:37:46;2.72;;;1.60;;
67162;SDS011;54092;53.088;8.850;2023-04-01T12:43:10;2.83;;;1.70;;
67162;SDS011;54092;53.088;8.850;2023-04-01T12:45:53;2.55;;;1.70;;
67162;SDS011;54092;53.088;8.850;2023-04-01T13:02:11;2.42;;;1.60;;
67162;SDS011;54092;53.088;8.850;2023-04-01T13:04:49;2.45;;;1.50;;
67162;SDS011;54092;53.088;8.850;2023-04-01T13:13:06;1.92;;;1.42;;
67162;SDS011;54092;53.088;8.850;2023-04-01T13:15:50;3.58;;;1.33;;
67162;SDS011;54092;53.088;8.850;2023-04-01T13:21:05;3.08;;;1.23;;
67162;SDS011;54092;53.088;8.850;2023-04-01T13:26:56;1.60;;;1.23;;
67162;SDS011;54092;53.088;8.850;2023-04-01T13:29:57;1.45;;;1.33;;
67162;SDS011;54092;53.088;8.850;2023-04-01T13:32:30;2.17;;;1.50;;
67162;SDS011;54092;53.088;8.850;2023-04-01T13:43:15;2.40;;;1.42;;
67162;SDS011;54092;53.088;8.850;2023-04-01T13:48:29;2.60;;;1.45;;
67162;SDS011;54092;53.088;8.850;2023-04-01T13:57:17;1.80;;;1.27;;
67162;SDS011;54092;53.088;8.850;2023-04-01T14:02:51;1.80;;;1.40;;
67162;SDS011;54092;53.088;8.850;2023-04-01T14:05:32;3.92;;;1.85;;
67162;SDS011;54092;53.088;8.850;2023-04-01T14:16:46;2.35;;;1.58;;
67162;SDS011;54092;53.088;8.850;2023-04-01T14:22:24;1.95;;;1.40;;
67162;SDS011;54092;53.088;8.850;2023-04-01T14:24:55;3.33;;;1.70;;
67162;SDS011;54092;53.088;8.850;2023-04-01T14:36:01;3.88;;;1.98;;
67162;SDS011;54092;53.088;8.850;2023-04-01T14:44:49;5.65;;;3.33;;
67162;SDS011;54092;53.088;8.850;2023-04-01T14:50:12;4.68;;;2.40;;
67162;SDS011;54092;53.088;8.850;2023-04-01T14:52:40;5.20;;;2.50;;
67162;SDS011;54092;53.088;8.850;2023-04-01T14:55:20;5.40;;;2.83;;
67162;SDS011;54092;53.088;8.850;2023-04-01T14:58:19;5.22;;;2.70;;
67162;SDS011;54092;53.088;8.850;2023-04-01T15:03:22;5.93;;;3.08;;
67162;SDS011;54092;53.088;8.850;2023-04-01T15:08:49;5.78;;;3.03;;
67162;SDS011;54092;53.088;8.850;2023-04-01T15:11:28;6.55;;;2.90;;
67162;SDS011;54092;53.088;8.850;2023-04-01T15:23:11;5.60;;;2.85;;
67162;SDS011;54092;53.088;8.850;2023-04-01T15:28:53;7.03;;;2.88;;
67162;SDS011;54092;53.088;8.850;2023-04-01T15:36:59;5.63;;;2.60;;
67162;SDS011;54092;53.088;8.850;2023-04-01T15:39:57;5.13;;;2.60;;
67162;SDS011;54092;53.088;8.850;2023-04-01T15:47:39;7.22;;;3.40;;
67162;SDS011;54092;53.088;8.850;2023-04-01T15:58:41;5.80;;;2.80;;
67162;SDS011;54092;53.088;8.850;2023-04-01T16:07:21;5.10;;;2.70;;
67162;SDS011;54092;53.088;8.850;2023-04-01T16:13:12;7.00;;;2.85;;
67162;SDS011;54092;53.088;8.850;2023-04-01T16:16:05;9.73;;;3.47;;
67162;SDS011;54092;53.088;8.850;2023-04-01T16:18:35;5.55;;;2.78;;
67162;SDS011;54092;53.088;8.850;2023-04-01T16:21:25;5.10;;;2.50;;
67162;SDS011;54092;53.088;8.850;2023-04-01T16:24:05;6.60;;;2.85;;
67162;SDS011;54092;53.088;8.850;2023-04-01T16:27:10;6.38;;;2.83;;
67162;SDS011;54092;53.088;8.850;2023-04-01T16:35:13;4.95;;;2.75;;
67162;SDS011;54092;53.088;8.850;2023-04-01T16:38:03;5.53;;;2.70;;
67162;SDS011;54092;53.088;8.850;2023-04-01T16:40:36;4.80;;;2.50;;
67162;SDS011;54092;53.088;8.850;2023-04-01T16:54:35;8.25;;;3.63;;
67162;SDS011;54092;53.088;8.850;2023-04-01T16:59:37;4.97;;;2.63;;
67162;SDS011;54092;53.088;8.850;2023-04-01T17:02:28;6.38;;;2.72;;
67162;SDS011;54092;53.088;8.850;2023-04-01T17:05:14;5.93;;;2.80;;
67162;SDS011;54092;53.088;8.850;2023-04-01T17:10:39;18.92;;;7.10;;
67162;SDS011;54092;53.088;8.850;2023-04-01T17:13:17;9.35;;;4.22;;
67162;SDS011;54092;53.088;8.850;2023-04-01T17:21:44;14.00;;;5.88;;
67162;SDS011;54092;53.088;8.850;2023-04-01T17:24:29;7.70;;;3.22;;
67162;SDS011;54092;53.088;8.850;2023-04-01T17:30:02;7.50;;;2.83;;
67162;SDS011;54092;53.088;8.850;2023-04-01T17:32:47;9.18;;;4.00;;
67162;SDS011;54092;53.088;8.850;2023-04-01T17:35:35;7.68;;;3.97;;
67162;SDS011;54092;53.088;8.850;2023-04-01T17:38:32;14.82;;;4.93;;
67162;SDS011;54092;53.088;8.850;2023-04-01T17:44:18;11.30;;;3.60;;
67162;SDS011;54092;53.088;8.850;2023-04-01T17:52:39;8.03;;;3.80;;
67162;SDS011;54092;53.088;8.850;2023-04-01T18:04:01;12.60;;;6.35;;
67162;SDS011;54092;53.088;8.850;2023-04-01T18:09:24;6.50;;;3.90;;
67162;SDS011;54092;53.088;8.850;2023-04-01T18:12:17;8.50;;;3.40;;
67162;SDS011;54092;53.088;8.850;2023-04-01T18:20:59;6.40;;;3.28;;
67162;SDS011;54092;53.088;8.850;2023-04-01T18:23:44;7.28;;;3.42;;
67162;SDS011;54092;53.088;8.850;2023-04-01T18:26:20;7.68;;;3.10;;
67162;SDS011;54092;53.088;8.850;2023-04-01T18:28:59;7.88;;;3.00;;
67162;SDS011;54092;53.088;8.850;2023-04-01T18:31:36;6.90;;;2.90;;
67162;SDS011;54092;53.088;8.850;2023-04-01T18:34:36;7.40;;;3.10;;
67162;SDS011;54092;53.088;8.850;2023-04-01T18:37:17;7.85;;;2.78;;
67162;SDS011;54092;53.088;8.850;2023-04-01T18:51:20;9.07;;;4.30;;
67162;SDS011;54092;53.088;8.850;2023-04-01T18:54:11;8.90;;;4.03;;
67162;SDS011;54092;53.088;8.850;2023-04-01T18:56:51;8.32;;;4.28;;
67162;SDS011;54092;53.088;8.850;2023-04-01T18:59:34;8.40;;;3.63;;
67162;SDS011;54092;53.088;8.850;2023-04-01T19:04:39;7.70;;;3.17;;
67162;SDS011;54092;53.088;8.850;2023-04-01T19:10:07;7.80;;;3.45;;
67162;SDS011;54092;53.088;8.850;2023-04-01T19:12:53;8.10;;;3.53;;
67162;SDS011;54092;53.088;8.850;2023-04-01T19:26:49;7.80;;;3.60;;
67162;SDS011;54092;53.088;8.850;2023-04-01T19:29:50;8.90;;;3.88;;
67162;SDS011;54092;53.088;8.850;2023-04-01T19:38:03;7.72;;;3.88;;
67162;SDS011;54092;53.088;8.850;2023-04-01T19:40:57;8.70;;;3.20;;
67162;SDS011;54092;53.088;8.850;2023-04-01T19:43:52;8.57;;;4.07;;
67162;SDS011;54092;53.088;8.850;2023-04-01T19:46:45;9.32;;;4.15;;
67162;SDS011;54092;53.088;8.850;2023-04-01T19:49:29;8.77;;;3.83;;
67162;SDS011;54092;53.088;8.850;2023-04-01T20:02:54;9.30;;;4.40;;
67162;SDS011;54092;53.088;8.850;2023-04-01T20:13:13;10.15;;;4.25;;
67162;SDS011;54092;53.088;8.850;2023-04-01T20:16:01;9.18;;;3.95;;
67162;SDS011;54092;53.088;8.850;2023-04-01T20:18:51;8.93;;;4.57;;
67162;SDS011;54092;53.088;8.850;2023-04-01T20:21:41;8.10;;;4.10;;
67162;SDS011;54092;53.088;8.850;2023-04-01T20:24:15;6.75;;;3.70;;
67162;SDS011;54092;53.088;8.850;2023-04-01T20:26:50;10.57;;;5.30;;
67162;SDS011;54092;53.088;8.850;2023-04-01T20:48:16;7.93;;;4.47;;
67162;SDS011;54092;53.088;8.850;2023-04-01T20:54:21;8.48;;;3.58;;
67162;SDS011;54092;53.088;8.850;2023-04-01T20:59:45;9.65;;;3.90;;
67162;SDS011;54092;53.088;8.850;2023-04-01T21:10:40;7.22;;;4.15;;
67162;SDS011;54092;53.088;8.850;2023-04-01T21:16:16;11.77;;;4.10;;
67162;SDS011;54092;53.088;8.850;2023-04-01T21:21:59;10.48;;;3.47;;
67162;SDS011;54092;53.088;8.850;2023-04-01T21:33:26;8.90;;;3.65;;
67162;SDS011;54092;53.088;8.850;2023-04-01T21:36:20;8.02;;;3.90;;
67162;SDS011;54092;53.088;8.850;2023-04-01T21:39:17;9.70;;;4.10;;
67162;SDS011;54092;53.088;8.850;2023-04-01T21:48:02;8.05;;;3.97;;
67162;SDS011;54092;53.088;8.850;2023-04-01T21:50:56;9.63;;;5.22;;
67162;SDS011;54092;53.088;8.850;2023-04-01T21:58:57;8.60;;;4.50;;
67162;SDS011;54092;53.088;8.850;2023-04-01T22:01:50;6.07;;;2.70;;
67162;SDS011;54092;53.088;8.850;2023-04-01T22:04:52;6.75;;;3.22;;
67162;SDS011;54092;53.088;8.850;2023-04-01T22:10:20;10.07;;;3.05;;
67162;SDS011;54092;53.088;8.850;2023-04-01T22:15:52;6.28;;;3.15;;
67162;SDS011;54092;53.088;8.850;2023-04-01T22:18:42;7.55;;;2.97;;
67162;SDS011;54092;53.088;8.850;2023-04-01T22:21:13;6.68;;;2.70;;
67162;SDS011;54092;53.088;8.850;2023-04-01T22:23:51;6.13;;;2.47;;
67162;SDS011;54092;53.088;8.850;2023-04-01T22:26:25;3.88;;;2.05;;
67162;SDS011;54092;53.088;8.850;2023-04-01T22:31:49;4.95;;;2.33;;
67162;SDS011;54092;53.088;8.850;2023-04-01T22:34:26;6.90;;;2.60;;
67162;SDS011;54092;53.088;8.850;2023-04-01T22:37:03;4.97;;;2.70;;
67162;SDS011;54092;53.088;8.850;2023-04-01T22:39:50;7.68;;;3.25;;
67162;SDS011;54092;53.088;8.850;2023-04-01T22:47:37;7.35;;;2.38;;
67162;SDS011;54092;53.088;8.850;2023-04-01T22:50:22;4.10;;;1.88;;
67162;SDS011;54092;53.088;8.850;2023-04-01T22:52:59;5.95;;;2.75;;
67162;SDS011;54092;53.088;8.850;2023-04-01T22:55:40;5.63;;;2.25;;
67162;SDS011;54092;53.088;8.850;2023-04-01T22:58:09;5.05;;;2.35;;
67162;SDS011;54092;53.088;8.850;2023-04-01T23:03:21;6.18;;;2.63;;
67162;SDS011;54092;53.088;8.850;2023-04-01T23:05:52;3.03;;;2.15;;
67162;SDS011;54092;53.088;8.850;2023-04-01T23:11:07;7.10;;;2.47;;
67162;SDS011;54092;53.088;8.850;2023-04-01T23:13:38;5.78;;;2.72;;
67162;SDS011;54092;53.088;8.850;2023-04-01T23:16:18;6.10;;;2.50;;
67162;SDS011;54092;53.088;8.850;2023-04-01T23:21:49;8.23;;;3.13;;
67162;SDS011;54092;53.088;8.850;2023-04-01T23:27:19;6.55;;;2.85;;
67162;SDS011;54092;53.088;8.850;2023-04-01T23:29:50;6.25;;;2.30;;
67162;SDS011;54092;53.088;8.850;2023-04-01T23:32:18;5.00;;;2.28;;
67162;SDS011;54092;53.088;8.850;2023-04-01T23:34:49;4.85;;;2.35;;
67162;SDS011;54092;53.088;8.850;2023-04-01T23:37:17;7.95;;;2.28;;
67162;SDS011;54092;53.088;8.850;2023-04-01T23:39:48;3.55;;;1.90;;
67162;SDS011;54092;53.088;8.850;2023-04-01T23:45:04;4.03;;;2.28;;
67162;SDS011;54092;53.088;8.850;2023-04-01T23:47:47;5.50;;;1.83;;
67162;SDS011;54092;53.088;8.850;2023-04-01T23:50:22;5.25;;;1.95;;
67162;SDS011;54092;53.088;8.850;2023-04-01T23:52:52;5.15;;;2.20;;
67162;SDS011;54092;53.088;8.850;2023-04-01T23:55:42;4.95;;;2.03;;
